createdAt,value
2023-05-05T00:01:12.374Z,100.00
2023-05-05T00:06:07.274Z,100.00
2023-05-05T00:11:01.878Z,100.00
2023-05-05T00:15:55.345Z,100.00
2023-05-05T00:20:49.228Z,100.00
2023-05-05T00:25:42.438Z,100.00
2023-05-05T00:30:38.168Z,100.00
2023-05-05T00:35:31.381Z,100.00
2023-05-05T00:40:25.580Z,100.00
2023-05-05T00:45:20.035Z,100.00
2023-05-05T00:50:22.860Z,100.00
2023-05-05T00:55:16.144Z,100.00
2023-05-05T01:00:10.857Z,100.00
2023-05-05T01:05:05.037Z,100.00
2023-05-05T01:10:18.760Z,100.00
2023-05-05T01:15:22.476Z,100.00
2023-05-05T01:20:22.769Z,100.00
2023-05-05T01:25:32.201Z,100.00
2023-05-05T01:31:05.897Z,100.00
2023-05-05T01:36:08.836Z,100.00
2023-05-05T01:41:06.800Z,100.00
2023-05-05T01:46:01.857Z,100.00
2023-05-05T01:50:56.577Z,100.00
2023-05-05T01:55:53.933Z,100.00
2023-05-05T02:00:49.108Z,100.00
2023-05-05T02:05:45.297Z,100.00
2023-05-05T02:10:41.000Z,100.00
2023-05-05T02:15:39.395Z,100.00
2023-05-05T02:20:35.765Z,100.00
2023-05-05T02:25:36.793Z,100.00
2023-05-05T02:30:33.583Z,100.00
2023-05-05T02:35:35.979Z,100.00
2023-05-05T02:40:34.359Z,100.00
2023-05-05T02:45:30.414Z,100.00
2023-05-05T02:50:24.858Z,100.00
2023-05-05T02:55:37.872Z,100.00
2023-05-05T03:00:40.425Z,100.00
2023-05-05T03:05:43.966Z,100.00
2023-05-05T03:10:47.496Z,100.00
2023-05-05T03:15:45.982Z,100.00
2023-05-05T03:20:41.805Z,100.00
2023-05-05T03:25:46.261Z,100.00
2023-05-05T03:30:47.893Z,100.00
2023-05-05T03:35:43.205Z,100.00
2023-05-05T03:40:44.150Z,100.00
2023-05-05T03:45:42.644Z,100.00
2023-05-05T03:50:36.755Z,100.00
2023-05-05T03:55:30.379Z,100.00
2023-05-05T04:00:23.749Z,100.00
2023-05-05T04:05:19.960Z,100.00
2023-05-05T04:10:13.695Z,100.00
2023-05-05T04:15:08.234Z,100.00
2023-05-05T04:20:03.735Z,100.00
2023-05-05T04:25:00.309Z,100.00
2023-05-05T04:29:54.829Z,100.00
2023-05-05T04:34:48.526Z,100.00
2023-05-05T04:39:42.723Z,100.00
2023-05-05T04:44:37.884Z,100.00
2023-05-05T04:49:31.462Z,100.00
2023-05-05T04:54:25.416Z,100.00
2023-05-05T04:59:18.694Z,100.00
2023-05-05T05:04:14.043Z,100.00
2023-05-05T05:09:09.125Z,100.00
2023-05-05T05:14:02.554Z,100.00
2023-05-05T05:18:56.110Z,100.00
2023-05-05T05:23:51.109Z,100.00
2023-05-05T05:28:44.981Z,100.00
2023-05-05T05:33:38.685Z,100.00
2023-05-05T05:38:32.698Z,100.00
2023-05-05T05:43:30.236Z,100.00
2023-05-05T05:48:28.392Z,100.00
2023-05-05T05:53:22.513Z,100.00
2023-05-05T05:58:17.176Z,100.00
2023-05-05T06:03:13.259Z,100.00
2023-05-05T06:08:08.269Z,100.00
2023-05-05T06:13:06.500Z,100.00
2023-05-05T06:18:01.780Z,100.00
2023-05-05T06:22:56.367Z,100.00
2023-05-05T06:27:50.716Z,100.00
2023-05-05T06:32:44.066Z,100.00
2023-05-05T06:37:37.223Z,100.00
2023-05-05T06:42:32.306Z,100.00
2023-05-05T06:47:26.730Z,100.00
2023-05-05T06:52:19.849Z,100.00
2023-05-05T06:57:12.932Z,100.00
2023-05-05T07:02:07.509Z,100.00
2023-05-05T07:07:01.307Z,100.00
2023-05-05T07:11:54.470Z,100.00
2023-05-05T07:16:47.599Z,100.00
2023-05-05T07:21:42.702Z,100.00
2023-05-05T07:26:35.982Z,100.00
2023-05-05T07:31:29.096Z,100.00
2023-05-05T07:36:22.443Z,100.00
2023-05-05T07:41:19.618Z,100.00
2023-05-05T07:46:13.924Z,100.00
2023-05-05T07:51:07.139Z,100.00
2023-05-05T07:56:00.233Z,100.00
2023-05-05T08:00:54.750Z,97.54
2023-05-05T08:05:49.411Z,96.92
2023-05-05T08:10:44.296Z,96.11
2023-05-05T08:15:38.024Z,96.37
2023-05-05T08:20:32.688Z,96.71
2023-05-05T08:25:26.944Z,99.21
2023-05-05T08:30:21.472Z,97.10
2023-05-05T08:35:14.839Z,94.27
2023-05-05T08:40:14.139Z,95.86
2023-05-05T08:45:09.169Z,91.05
2023-05-05T08:50:03.391Z,92.45
2023-05-05T08:55:01.522Z,92.84
2023-05-05T08:59:58.909Z,91.75
2023-05-05T09:04:53.286Z,87.11
2023-05-05T09:09:46.993Z,86.86
2023-05-05T09:14:40.397Z,88.84
2023-05-05T09:19:35.245Z,89.21
2023-05-05T09:24:28.505Z,84.22
2023-05-05T09:29:22.873Z,83.24
2023-05-05T09:34:17.360Z,83.71
2023-05-05T09:39:12.028Z,84.51
2023-05-05T09:44:05.268Z,81.63
2023-05-05T09:49:12.430Z,79.77
2023-05-05T09:54:07.438Z,80.83
2023-05-05T09:59:11.210Z,79.45
2023-05-05T10:04:04.336Z,82.91
2023-05-05T10:09:07.541Z,81.39
2023-05-05T10:14:01.031Z,81.32
2023-05-05T10:18:58.102Z,79.68
2023-05-05T10:24:01.765Z,80.12
2023-05-05T10:28:57.367Z,81.20
2023-05-05T10:33:56.438Z,80.37
2023-05-05T10:38:51.673Z,78.24
2023-05-05T10:43:48.131Z,77.41
2023-05-05T10:48:48.253Z,73.84
2023-05-05T10:53:45.775Z,73.25
2023-05-05T10:58:51.296Z,75.30
2023-05-05T11:03:52.232Z,79.78
2023-05-05T11:08:47.084Z,77.74
2023-05-05T11:13:41.165Z,79.83
2023-05-05T11:18:39.449Z,77.04
2023-05-05T11:23:35.046Z,77.27
2023-05-05T11:28:31.413Z,75.44
2023-05-05T11:33:24.781Z,73.69
2023-05-05T11:38:20.240Z,75.83
2023-05-05T11:43:13.409Z,73.88
2023-05-05T11:48:27.127Z,71.11
2023-05-05T11:53:21.182Z,71.37
2023-05-05T11:58:20.379Z,66.86
2023-05-05T12:03:13.772Z,69.09
2023-05-05T12:08:08.529Z,67.58
2023-05-05T12:13:01.685Z,69.53
2023-05-05T12:17:54.879Z,70.34
2023-05-05T12:22:48.079Z,71.68
2023-05-05T12:27:52.735Z,67.82
2023-05-05T12:32:46.786Z,66.77
2023-05-05T12:37:40.305Z,70.33
2023-05-05T12:42:39.023Z,64.86
2023-05-05T12:47:35.156Z,65.87
2023-05-05T12:52:45.650Z,65.75
2023-05-05T12:57:39.957Z,68.13
2023-05-05T13:02:36.721Z,66.50
2023-05-05T13:07:30.033Z,64.07
2023-05-05T13:12:25.103Z,59.38
2023-05-05T13:17:18.656Z,52.13
2023-05-05T13:22:14.702Z,48.31
2023-05-05T13:27:08.025Z,46.81
2023-05-05T13:32:01.201Z,44.32
2023-05-05T13:36:54.362Z,44.24
2023-05-05T13:41:48.978Z,41.38
2023-05-05T13:46:42.753Z,42.66
2023-05-05T13:51:36.086Z,40.21
2023-05-05T13:56:29.989Z,41.41
2023-05-05T14:01:24.637Z,40.73
2023-05-05T14:06:17.942Z,44.26
2023-05-05T14:11:11.004Z,44.70
2023-05-05T14:16:04.200Z,40.37
2023-05-05T14:21:00.819Z,41.98
2023-05-05T14:25:55.842Z,38.49
2023-05-05T14:30:50.885Z,39.98
2023-05-05T14:35:44.224Z,37.80
2023-05-05T14:40:38.697Z,38.74
2023-05-05T14:45:32.720Z,42.62
2023-05-05T14:50:25.916Z,44.04
2023-05-05T14:55:19.273Z,48.29
2023-05-05T15:00:14.670Z,48.77
2023-05-05T15:05:08.936Z,49.37
2023-05-05T15:10:02.238Z,51.57
2023-05-05T15:14:55.527Z,56.68
2023-05-05T15:19:50.176Z,58.78
2023-05-05T15:24:43.246Z,59.36
2023-05-05T15:29:36.410Z,60.76
2023-05-05T15:34:29.640Z,61.43
2023-05-05T15:39:24.313Z,63.46
2023-05-05T15:44:17.498Z,64.02
2023-05-05T15:49:10.783Z,64.18
2023-05-05T15:54:03.976Z,63.61
2023-05-05T15:58:58.522Z,66.57
2023-05-05T16:03:51.909Z,64.80
2023-05-05T16:08:45.375Z,64.70
2023-05-05T16:13:39.267Z,64.68
2023-05-05T16:18:33.775Z,64.60
2023-05-05T16:23:26.898Z,66.01
2023-05-05T16:28:20.018Z,66.10
2023-05-05T16:33:13.126Z,67.68
2023-05-05T16:38:07.901Z,69.15
2023-05-05T16:43:01.131Z,69.17
2023-05-05T16:47:55.423Z,69.43
2023-05-05T16:52:48.734Z,69.93
2023-05-05T16:57:43.217Z,70.40
2023-05-05T17:02:36.762Z,70.99
2023-05-05T17:07:30.295Z,71.06
2023-05-05T17:12:23.722Z,72.29
2023-05-05T17:17:21.255Z,73.59
2023-05-05T17:22:14.445Z,75.29
2023-05-05T17:27:07.645Z,77.30
2023-05-05T17:32:00.807Z,77.91
2023-05-05T17:36:55.258Z,79.02
2023-05-05T17:41:48.362Z,80.28
2023-05-05T17:46:41.534Z,81.50
2023-05-05T17:51:34.650Z,81.94
2023-05-05T17:56:29.113Z,82.71
2023-05-05T18:01:22.480Z,84.68
2023-05-05T18:06:15.592Z,85.05
2023-05-05T18:11:08.767Z,85.92
2023-05-05T18:16:03.279Z,87.08
2023-05-05T18:20:56.360Z,87.49
2023-05-05T18:25:49.477Z,88.01
2023-05-05T18:30:42.642Z,88.59
2023-05-05T18:35:37.276Z,88.74
2023-05-05T18:40:32.471Z,89.13
2023-05-05T18:45:25.946Z,89.94
2023-05-05T18:50:19.161Z,89.93
2023-05-05T18:55:13.618Z,90.13
2023-05-05T19:00:07.956Z,90.59
2023-05-05T19:05:01.140Z,90.99
2023-05-05T19:09:54.387Z,90.33
2023-05-05T19:14:48.856Z,89.47
2023-05-05T19:19:41.922Z,89.23
2023-05-05T19:24:35.728Z,89.47
2023-05-05T19:29:29.043Z,88.91
2023-05-05T19:34:23.676Z,89.05
2023-05-05T19:39:16.833Z,87.67
2023-05-05T19:44:09.885Z,87.96
2023-05-05T19:49:02.936Z,87.73
2023-05-05T19:53:57.457Z,86.82
2023-05-05T19:58:57.490Z,86.91
2023-05-05T20:03:52.342Z,86.85
2023-05-05T20:08:47.571Z,86.91
2023-05-05T20:13:42.222Z,87.01
2023-05-05T20:18:35.462Z,86.99
2023-05-05T20:23:28.818Z,87.82
2023-05-05T20:28:22.586Z,87.65
2023-05-05T20:33:17.103Z,86.34
2023-05-05T20:38:10.466Z,85.79
2023-05-05T20:43:03.780Z,85.13
2023-05-05T20:47:56.847Z,85.00
2023-05-05T20:52:51.518Z,86.03
2023-05-05T20:57:44.569Z,86.06
2023-05-05T21:02:39.290Z,86.52
2023-05-05T21:07:34.203Z,86.32
2023-05-05T21:12:30.681Z,86.76
2023-05-05T21:17:23.974Z,87.14
2023-05-05T21:22:17.100Z,87.83
2023-05-05T21:27:10.330Z,88.50
2023-05-05T21:32:04.872Z,89.03
2023-05-05T21:36:58.240Z,88.88
2023-05-05T21:41:51.710Z,88.92
2023-05-05T21:46:44.880Z,89.82
2023-05-05T21:51:39.339Z,90.06
2023-05-05T21:56:32.406Z,90.65
2023-05-05T22:01:25.610Z,91.75
2023-05-05T22:06:20.528Z,91.77
2023-05-05T22:11:15.129Z,92.01
2023-05-05T22:16:08.686Z,92.53
2023-05-05T22:21:01.896Z,93.17
2023-05-05T22:25:55.363Z,93.72
2023-05-05T22:30:50.216Z,94.03
2023-05-05T22:35:43.432Z,93.79
2023-05-05T22:40:39.103Z,92.87
2023-05-05T22:45:32.190Z,92.14
2023-05-05T22:50:26.776Z,92.05
2023-05-05T22:55:20.428Z,91.59
2023-05-05T23:00:14.699Z,91.70
2023-05-05T23:05:08.590Z,91.04
2023-05-05T23:10:04.765Z,90.57
2023-05-05T23:14:57.987Z,90.58
2023-05-05T23:19:51.560Z,92.56
2023-05-05T23:24:44.944Z,91.96
2023-05-05T23:29:39.625Z,91.65
2023-05-05T23:34:32.778Z,90.24
2023-05-05T23:39:25.987Z,91.34
2023-05-05T23:44:19.179Z,91.13
2023-05-05T23:49:13.747Z,91.88
2023-05-05T23:54:07.360Z,92.47
2023-05-05T23:59:00.661Z,92.08
